Time;durP1;ratioP1;P1;durP2;ratioP2;P2;SDS_P1;SDS_P2;PMS_P1;PMS_P2;Temp;Humidity;BMP_temperature;BMP_pressure;BME280_temperature;BME280_humidity;BME280_pressure;Samples;Min_cycle;Max_cycle;Signal;HPM_P1;HPM_P2
2023/09/21 00:01:18;;;;;;;4.45;2.25;;;;;;;;;;5021239;28;20045;-80
2023/09/21 00:03:45;;;;;;;2.90;2.03;;;;;;;;;;5025662;28;20039;-79
2023/09/21 00:06:13;;;;;;;5.45;2.20;;;;;;;;;;4992587;28;20053;-80
2023/09/21 00:08:40;;;;;;;3.88;2.13;;;;;;;;;;5018117;28;20077;-80
2023/09/21 00:11:06;;;;;;;5.55;2.85;;;;;;;;;;5016196;28;20049;-80
2023/09/21 00:13:33;;;;;;;5.68;2.65;;;;;;;;;;5017161;28;20484;-80
2023/09/21 00:16:02;;;;;;;3.97;2.10;;;;;;;;;;5018426;28;21130;-80
2023/09/21 00:18:29;;;;;;;7.57;2.40;;;;;;;;;;5019689;28;20049;-80
2023/09/21 00:20:56;;;;;;;7.50;2.47;;;;;;;;;;5017444;28;20057;-80
2023/09/21 00:23:25;;;;;;;3.85;2.83;;;;;;;;;;5015861;28;20037;-81
2023/09/21 00:25:58;;;;;;;11.48;3.45;;;;;;;;;;5015767;28;20228;-80
2023/09/21 00:28:24;;;;;;;13.40;2.83;;;;;;;;;;5019866;28;20131;-80
2023/09/21 00:30:54;;;;;;;7.70;2.60;;;;;;;;;;4993000;28;20250;-80
2023/09/21 00:33:21;;;;;;;6.28;2.50;;;;;;;;;;5025258;28;20092;-80
2023/09/21 00:35:47;;;;;;;6.00;2.85;;;;;;;;;;5018420;28;20048;-80
2023/09/21 00:38:16;;;;;;;6.90;2.63;;;;;;;;;;5026149;28;20048;-81
2023/09/21 00:40:42;;;;;;;3.85;2.28;;;;;;;;;;5018050;28;20505;-81
2023/09/21 00:43:12;;;;;;;5.40;2.65;;;;;;;;;;5019302;28;20130;-80
2023/09/21 00:45:40;;;;;;;5.70;2.47;;;;;;;;;;5021239;28;20044;-79
2023/09/21 00:48:09;;;;;;;7.90;2.60;;;;;;;;;;5020711;28;20227;-79
2023/09/21 00:50:36;;;;;;;3.88;2.25;;;;;;;;;;5022133;28;20052;-79
2023/09/21 00:53:04;;;;;;;5.97;2.75;;;;;;;;;;5024007;28;20177;-79
2023/09/21 00:55:31;;;;;;;4.05;2.50;;;;;;;;;;5017969;28;20183;-80
2023/09/21 00:58:05;;;;;;;6.80;2.65;;;;;;;;;;5024128;28;20498;-80
2023/09/21 01:00:31;;;;;;;6.50;3.00;;;;;;;;;;5021906;28;20084;-80
2023/09/21 01:03:07;;;;;;;7.18;2.75;;;;;;;;;;5020102;28;20508;-80
2023/09/21 01:05:34;;;;;;;5.68;2.45;;;;;;;;;;5024022;28;20685;-79
2023/09/21 01:08:01;;;;;;;5.65;2.25;;;;;;;;;;5022938;28;20051;-80
2023/09/21 01:10:27;;;;;;;3.75;2.47;;;;;;;;;;5020920;28;20052;-80
2023/09/21 01:12:53;;;;;;;6.45;2.67;;;;;;;;;;5022187;28;20098;-80
2023/09/21 01:15:20;;;;;;;5.95;2.50;;;;;;;;;;5021090;28;20528;-80
2023/09/21 01:17:47;;;;;;;5.43;3.03;;;;;;;;;;5020878;28;20048;-80
2023/09/21 01:20:15;;;;;;;3.60;2.38;;;;;;;;;;5022478;28;20049;-80
2023/09/21 01:22:44;;;;;;;6.60;2.33;;;;;;;;;;5023086;28;20048;-80
2023/09/21 01:25:11;;;;;;;6.88;2.58;;;;;;;;;;5020482;28;20076;-80
2023/09/21 01:27:39;;;;;;;4.13;2.35;;;;;;;;;;5032587;28;20612;-80
2023/09/21 01:30:08;;;;;;;3.75;2.50;;;;;;;;;;5023097;28;20111;-80
2023/09/21 01:32:34;;;;;;;3.72;2.40;;;;;;;;;;5022110;28;20732;-80
2023/09/21 01:35:00;;;;;;;4.20;2.40;;;;;;;;;;5020358;28;20097;-80
2023/09/21 01:37:29;;;;;;;4.72;3.03;;;;;;;;;;5025919;28;20053;-81
2023/09/21 01:39:55;;;;;;;4.38;2.80;;;;;;;;;;5025836;28;20056;-80
2023/09/21 01:42:23;;;;;;;5.90;2.35;;;;;;;;;;5020586;28;20052;-80
2023/09/21 01:44:49;;;;;;;6.13;2.40;;;;;;;;;;5020652;28;20037;-80
2023/09/21 01:47:17;;;;;;;4.32;2.22;;;;;;;;;;5022599;28;20041;-80
2023/09/21 01:49:44;;;;;;;4.50;2.15;;;;;;;;;;5025405;28;20079;-80
2023/09/21 01:52:11;;;;;;;5.38;2.55;;;;;;;;;;5027181;28;20143;-80
2023/09/21 01:54:38;;;;;;;5.45;2.40;;;;;;;;;;5026159;28;20470;-81
2023/09/21 01:57:08;;;;;;;5.20;2.40;;;;;;;;;;5000916;28;20049;-80
2023/09/21 01:59:35;;;;;;;2.45;1.83;;;;;;;;;;5012139;28;20052;-80
2023/09/21 02:02:01;;;;;;;3.58;2.10;;;;;;;;;;5028822;28;20078;-80
2023/09/21 02:04:27;;;;;;;3.75;2.28;;;;;;;;;;5032208;28;20554;-80
2023/09/21 02:06:53;;;;;;;5.28;2.10;;;;;;;;;;5027241;28;20057;-81
2023/09/21 02:09:20;;;;;;;6.45;2.05;;;;;;;;;;5027146;28;20036;-80
2023/09/21 02:11:47;;;;;;;5.88;2.55;;;;;;;;;;5014809;28;20053;-80
2023/09/21 02:14:13;;;;;;;6.32;2.50;;;;;;;;;;5025634;28;20492;-80
2023/09/21 02:16:39;;;;;;;6.90;2.50;;;;;;;;;;5024141;28;20045;-80
2023/09/21 02:19:07;;;;;;;6.13;2.42;;;;;;;;;;5025342;28;20489;-79
2023/09/21 02:21:34;;;;;;;3.50;2.28;;;;;;;;;;5020979;28;20048;-80
2023/09/21 02:24:00;;;;;;;3.10;1.95;;;;;;;;;;5021335;28;20407;-80
2023/09/21 02:26:26;;;;;;;3.10;2.05;;;;;;;;;;5018870;28;20227;-80
2023/09/21 02:28:53;;;;;;;7.97;2.55;;;;;;;;;;5020361;28;20036;-80
2023/09/21 02:31:21;;;;;;;3.38;2.17;;;;;;;;;;5019343;28;20089;-80
2023/09/21 02:33:47;;;;;;;3.15;1.98;;;;;;;;;;5020761;28;20159;-80
2023/09/21 02:36:19;;;;;;;4.55;2.10;;;;;;;;;;4994661;28;20052;-80
2023/09/21 02:38:45;;;;;;;2.90;2.10;;;;;;;;;;5022807;28;20499;-80
2023/09/21 02:41:11;;;;;;;5.88;2.20;;;;;;;;;;5020112;28;20100;-80
2023/09/21 02:43:38;;;;;;;7.07;2.40;;;;;;;;;;5020450;28;20036;-80
2023/09/21 02:46:04;;;;;;;6.28;2.53;;;;;;;;;;5006377;28;21224;-80
2023/09/21 02:48:30;;;;;;;3.15;2.17;;;;;;;;;;5020515;28;20045;-80
2023/09/21 02:50:58;;;;;;;5.10;2.20;;;;;;;;;;5018480;28;20500;-80
2023/09/21 02:53:24;;;;;;;4.25;2.40;;;;;;;;;;5023258;28;20056;-80
2023/09/21 02:55:52;;;;;;;7.38;2.22;;;;;;;;;;4985757;28;20049;-80
2023/09/21 02:58:19;;;;;;;3.90;2.13;;;;;;;;;;5020986;28;20056;-80
2023/09/21 03:00:46;;;;;;;6.68;2.78;;;;;;;;;;5019455;28;20067;-81
2023/09/21 03:03:15;;;;;;;4.63;1.98;;;;;;;;;;5019907;28;20071;-81
2023/09/21 03:05:46;;;;;;;3.80;2.50;;;;;;;;;;5023055;28;20578;-80
2023/09/21 03:08:15;;;;;;;3.97;1.92;;;;;;;;;;5022359;28;20080;-80
2023/09/21 03:10:45;;;;;;;2.85;1.88;;;;;;;;;;5016090;28;20075;-80
2023/09/21 03:13:17;;;;;;;3.92;2.20;;;;;;;;;;5024997;28;20103;-81
2023/09/21 03:15:47;;;;;;;3.50;2.10;;;;;;;;;;5023370;28;20052;-80
2023/09/21 03:18:14;;;;;;;3.55;2.38;;;;;;;;;;4994776;28;20052;-80
2023/09/21 03:20:40;;;;;;;3.92;2.30;;;;;;;;;;5028324;28;20531;-81
2023/09/21 03:23:09;;;;;;;3.08;2.20;;;;;;;;;;4998045;28;20049;-80
2023/09/21 03:25:45;;;;;;;2.72;1.92;;;;;;;;;;5022795;28;20493;-80
2023/09/21 03:28:15;;;;;;;3.58;2.47;;;;;;;;;;4996434;28;20074;-80
2023/09/21 03:30:42;;;;;;;4.22;2.30;;;;;;;;;;5028993;28;20637;-80
2023/09/21 03:33:09;;;;;;;5.18;2.30;;;;;;;;;;5026304;28;20080;-80
2023/09/21 03:35:37;;;;;;;2.85;2.10;;;;;;;;;;5025506;28;20060;-80
2023/09/21 03:38:06;;;;;;;4.50;2.75;;;;;;;;;;5025436;28;20103;-80
2023/09/21 03:40:32;;;;;;;4.72;2.30;;;;;;;;;;5023474;28;20052;-80
2023/09/21 03:42:59;;;;;;;4.28;2.25;;;;;;;;;;5018763;28;20393;-81
2023/09/21 03:45:26;;;;;;;5.13;2.28;;;;;;;;;;5003200;28;20096;-80
2023/09/21 03:47:52;;;;;;;5.18;2.30;;;;;;;;;;5019226;28;20122;-80
2023/09/21 03:50:19;;;;;;;4.15;2.30;;;;;;;;;;5022778;28;20224;-80
2023/09/21 03:52:47;;;;;;;3.15;2.47;;;;;;;;;;5023110;28;20083;-80
2023/09/21 03:55:16;;;;;;;5.00;2.20;;;;;;;;;;5019164;28;20064;-80
2023/09/21 03:57:50;;;;;;;4.45;2.50;;;;;;;;;;5018492;28;20117;-81
2023/09/21 04:02:48;;;;;;;2.92;2.30;;;;;;;;;;5020465;28;20149;-80
2023/09/21 04:05:18;;;;;;;5.88;2.40;;;;;;;;;;5025715;28;20269;-80
2023/09/21 04:07:45;;;;;;;3.97;2.15;;;;;;;;;;5018277;28;20057;-80
2023/09/21 04:10:12;;;;;;;5.22;2.25;;;;;;;;;;5019344;28;20053;-80
2023/09/21 04:12:41;;;;;;;4.82;2.40;;;;;;;;;;4994824;28;20983;-80
2023/09/21 04:15:08;;;;;;;6.78;2.75;;;;;;;;;;5031133;28;20047;-80
2023/09/21 04:17:34;;;;;;;5.53;2.30;;;;;;;;;;5023261;28;20049;-80
2023/09/21 04:20:00;;;;;;;4.78;2.30;;;;;;;;;;5021744;28;20052;-80
2023/09/21 04:22:26;;;;;;;3.78;2.30;;;;;;;;;;5005681;28;20439;-80
2023/09/21 04:24:52;;;;;;;4.45;2.15;;;;;;;;;;5021691;28;20508;-80
2023/09/21 04:27:18;;;;;;;2.72;2.35;;;;;;;;;;5025650;28;20096;-81
2023/09/21 04:29:44;;;;;;;4.97;2.10;;;;;;;;;;5025606;28;20049;-81
2023/09/21 04:32:10;;;;;;;5.65;2.72;;;;;;;;;;5027665;28;20049;-81
2023/09/21 04:34:36;;;;;;;2.92;2.17;;;;;;;;;;5008322;28;20127;-80
2023/09/21 04:37:03;;;;;;;2.72;1.63;;;;;;;;;;5000495;28;20041;-81
2023/09/21 04:39:30;;;;;;;5.78;2.13;;;;;;;;;;5007548;28;20055;-81
2023/09/21 04:41:56;;;;;;;3.33;1.92;;;;;;;;;;5025119;28;20041;-80
2023/09/21 04:44:22;;;;;;;3.45;2.10;;;;;;;;;;5026043;28;20082;-81
2023/09/21 04:46:48;;;;;;;2.90;2.42;;;;;;;;;;5027326;28;20159;-80
2023/09/21 04:49:14;;;;;;;7.72;2.33;;;;;;;;;;5024651;28;20128;-81
2023/09/21 04:51:40;;;;;;;4.68;2.05;;;;;;;;;;5027363;28;20052;-80
2023/09/21 04:54:06;;;;;;;6.45;2.67;;;;;;;;;;5028082;28;20382;-81
2023/09/21 04:56:32;;;;;;;2.92;2.05;;;;;;;;;;5001323;28;20041;-81
2023/09/21 04:58:58;;;;;;;2.72;1.95;;;;;;;;;;5026775;28;20044;-81
2023/09/21 05:01:25;;;;;;;3.97;2.28;;;;;;;;;;5022092;28;20102;-80
2023/09/21 05:03:51;;;;;;;5.20;2.25;;;;;;;;;;5023577;28;22023;-81
2023/09/21 05:06:23;;;;;;;8.98;2.13;;;;;;;;;;5029040;28;20060;-81
2023/09/21 05:08:49;;;;;;;3.47;2.30;;;;;;;;;;5027553;28;20132;-81
2023/09/21 05:11:15;;;;;;;6.45;2.67;;;;;;;;;;5029052;28;21845;-81
2023/09/21 05:13:41;;;;;;;5.57;1.92;;;;;;;;;;5027516;28;20060;-81
2023/09/21 05:16:08;;;;;;;6.00;2.35;;;;;;;;;;5027505;28;20044;-80
2023/09/21 05:18:34;;;;;;;4.93;2.30;;;;;;;;;;5031395;28;20048;-80
2023/09/21 05:21:04;;;;;;;5.18;2.20;;;;;;;;;;5029500;28;21750;-81
2023/09/21 05:23:30;;;;;;;5.50;2.55;;;;;;;;;;5028499;28;20501;-80
2023/09/21 05:25:56;;;;;;;4.78;2.13;;;;;;;;;;5033727;28;20143;-81
2023/09/21 05:28:23;;;;;;;2.30;2.10;;;;;;;;;;5032628;28;20857;-80
2023/09/21 05:30:49;;;;;;;4.82;2.88;;;;;;;;;;5035116;28;20089;-81
2023/09/21 05:33:15;;;;;;;5.60;2.50;;;;;;;;;;5030890;28;20068;-81
2023/09/21 05:35:41;;;;;;;4.40;2.55;;;;;;;;;;5012468;28;20515;-81
2023/09/21 05:38:07;;;;;;;4.68;2.42;;;;;;;;;;5031686;28;20044;-81
2023/09/21 05:40:33;;;;;;;3.75;2.53;;;;;;;;;;5032578;28;20045;-81
2023/09/21 05:42:59;;;;;;;3.85;2.42;;;;;;;;;;5031947;28;20040;-81
2023/09/21 05:45:26;;;;;;;4.43;2.88;;;;;;;;;;5034664;28;20192;-81
2023/09/21 05:47:52;;;;;;;3.47;2.30;;;;;;;;;;5032695;28;20041;-81
2023/09/21 05:50:18;;;;;;;6.30;2.10;;;;;;;;;;5034168;28;20045;-76
2023/09/21 05:52:44;;;;;;;4.32;2.20;;;;;;;;;;5032911;28;20053;-77
2023/09/21 05:55:11;;;;;;;5.38;2.47;;;;;;;;;;5031286;28;20057;-77
2023/09/21 05:57:39;;;;;;;3.80;2.30;;;;;;;;;;5034293;28;20060;-77
2023/09/21 06:00:07;;;;;;;2.60;2.38;;;;;;;;;;5016987;28;20091;-77
2023/09/21 06:02:34;;;;;;;6.43;2.58;;;;;;;;;;5032521;28;20561;-77
2023/09/21 06:05:00;;;;;;;5.38;3.05;;;;;;;;;;5034622;28;20044;-76
2023/09/21 06:07:27;;;;;;;4.75;2.08;;;;;;;;;;5035642;28;20044;-76
2023/09/21 06:09:53;;;;;;;3.83;2.20;;;;;;;;;;5034489;28;20083;-76
2023/09/21 06:12:19;;;;;;;5.45;2.47;;;;;;;;;;5032998;28;20475;-77
2023/09/21 06:14:45;;;;;;;3.40;1.98;;;;;;;;;;5014271;28;20048;-76
2023/09/21 06:17:13;;;;;;;3.38;1.90;;;;;;;;;;5031719;28;20131;-76
2023/09/21 06:19:39;;;;;;;4.57;2.20;;;;;;;;;;5019300;28;20041;-77
2023/09/21 06:22:06;;;;;;;3.50;2.35;;;;;;;;;;5013505;28;20046;-77
2023/09/21 06:24:32;;;;;;;4.47;2.10;;;;;;;;;;5037686;28;20155;-77
2023/09/21 06:26:58;;;;;;;3.38;2.38;;;;;;;;;;5022513;28;21919;-77
2023/09/21 06:29:24;;;;;;;3.88;2.35;;;;;;;;;;5038093;28;20048;-76
2023/09/21 06:31:55;;;;;;;3.95;2.22;;;;;;;;;;5040437;28;20438;-77
2023/09/21 06:34:24;;;;;;;2.40;2.00;;;;;;;;;;5039435;28;20598;-78
2023/09/21 06:36:52;;;;;;;5.65;2.30;;;;;;;;;;5016097;28;20047;-78
2023/09/21 06:39:20;;;;;;;7.53;2.83;;;;;;;;;;5040066;28;20072;-77
2023/09/21 06:41:47;;;;;;;4.43;2.10;;;;;;;;;;5045185;28;20049;-77
2023/09/21 06:44:15;;;;;;;4.78;2.63;;;;;;;;;;5042976;28;20633;-77
2023/09/21 06:46:41;;;;;;;7.18;2.20;;;;;;;;;;5025234;28;20045;-77
2023/09/21 06:49:07;;;;;;;4.78;2.40;;;;;;;;;;5042689;28;20071;-77
2023/09/21 06:51:33;;;;;;;5.75;2.30;;;;;;;;;;5041332;28;20041;-78
2023/09/21 06:54:00;;;;;;;4.97;2.55;;;;;;;;;;5039974;28;20048;-81
2023/09/21 06:56:31;;;;;;;4.22;2.58;;;;;;;;;;5019242;28;20055;-77
2023/09/21 06:58:57;;;;;;;6.22;1.90;;;;;;;;;;5034004;28;20056;-77
2023/09/21 07:01:26;;;;;;;3.67;2.25;;;;;;;;;;5035269;28;20057;-77
2023/09/21 07:03:52;;;;;;;4.68;2.33;;;;;;;;;;5033310;28;20050;-77
2023/09/21 07:06:19;;;;;;;4.10;2.28;;;;;;;;;;5030703;28;20061;-77
2023/09/21 07:08:49;;;;;;;3.00;2.33;;;;;;;;;;5032335;28;20423;-77
2023/09/21 07:11:16;;;;;;;5.80;2.25;;;;;;;;;;5033799;28;20049;-77
2023/09/21 07:13:46;;;;;;;2.28;2.00;;;;;;;;;;5031674;28;20072;-77
2023/09/21 07:16:12;;;;;;;4.35;2.55;;;;;;;;;;5035165;28;20041;-76
2023/09/21 07:18:39;;;;;;;2.70;2.28;;;;;;;;;;5015627;28;20191;-76
2023/09/21 07:21:05;;;;;;;6.80;2.22;;;;;;;;;;5033919;28;20048;-75
2023/09/21 07:23:31;;;;;;;5.18;2.42;;;;;;;;;;5013819;28;21037;-75
2023/09/21 07:25:58;;;;;;;3.35;2.22;;;;;;;;;;5022129;28;21607;-75
2023/09/21 07:28:24;;;;;;;3.63;2.33;;;;;;;;;;5005655;28;20048;-78
2023/09/21 07:30:52;;;;;;;4.13;2.50;;;;;;;;;;5033094;28;20069;-77
2023/09/21 07:33:20;;;;;;;3.47;2.08;;;;;;;;;;5030335;28;21252;-77
2023/09/21 07:35:47;;;;;;;4.30;2.10;;;;;;;;;;5028129;28;20437;-77
2023/09/21 07:38:13;;;;;;;5.78;2.70;;;;;;;;;;5031966;28;20044;-77
2023/09/21 07:40:39;;;;;;;6.13;2.60;;;;;;;;;;5001841;28;20144;-77
2023/09/21 07:43:06;;;;;;;4.00;2.40;;;;;;;;;;5032472;28;20071;-77
2023/09/21 07:45:32;;;;;;;8.07;2.50;;;;;;;;;;5030321;28;20436;-76
2023/09/21 07:47:59;;;;;;;5.35;2.67;;;;;;;;;;5031278;28;20800;-76
2023/09/21 07:50:26;;;;;;;4.22;2.60;;;;;;;;;;5032260;28;20103;-76
2023/09/21 07:52:56;;;;;;;5.22;2.60;;;;;;;;;;5032149;28;20048;-76
2023/09/21 07:55:22;;;;;;;4.13;2.17;;;;;;;;;;5029410;28;20060;-76
2023/09/21 07:57:48;;;;;;;6.20;2.70;;;;;;;;;;5017089;28;20134;-76
2023/09/21 08:00:15;;;;;;;3.95;2.30;;;;;;;;;;5030418;28;20188;-76
2023/09/21 08:02:41;;;;;;;3.72;2.72;;;;;;;;;;5023217;28;20037;-76
2023/09/21 08:05:09;;;;;;;5.20;2.92;;;;;;;;;;5014552;28;20044;-75
2023/09/21 08:07:36;;;;;;;4.43;2.60;;;;;;;;;;5017801;28;20056;-76
2023/09/21 08:10:03;;;;;;;4.18;2.30;;;;;;;;;;5032408;28;20284;-79
2023/09/21 08:12:30;;;;;;;4.88;2.88;;;;;;;;;;5003493;28;20556;-79
2023/09/21 08:14:57;;;;;;;3.42;2.70;;;;;;;;;;5033058;28;20480;-79
2023/09/21 08:17:23;;;;;;;6.85;2.50;;;;;;;;;;5036168;28;20519;-81
2023/09/21 08:19:50;;;;;;;5.40;2.60;;;;;;;;;;5031476;28;20044;-78
2023/09/21 08:22:16;;;;;;;4.90;3.03;;;;;;;;;;5033269;28;20037;-80
2023/09/21 08:24:42;;;;;;;4.07;2.60;;;;;;;;;;5022298;28;20041;-79
2023/09/21 08:27:08;;;;;;;5.50;2.88;;;;;;;;;;5025648;28;20040;-80
2023/09/21 08:29:35;;;;;;;5.50;2.90;;;;;;;;;;5056811;28;20049;-81
2023/09/21 08:32:02;;;;;;;7.72;2.85;;;;;;;;;;5063203;28;20048;-81
2023/09/21 08:34:28;;;;;;;8.50;2.97;;;;;;;;;;5050479;28;20090;-75
2023/09/21 08:36:54;;;;;;;6.22;3.10;;;;;;;;;;5020149;28;20049;-75
2023/09/21 08:39:20;;;;;;;6.80;2.80;;;;;;;;;;5016939;28;20049;-75
2023/09/21 08:41:50;;;;;;;6.63;3.10;;;;;;;;;;5032268;28;20888;-75
2023/09/21 08:44:19;;;;;;;6.03;2.70;;;;;;;;;;5029638;28;20048;-75
2023/09/21 08:46:46;;;;;;;2.90;2.22;;;;;;;;;;5020638;28;20056;-75
2023/09/21 08:49:15;;;;;;;4.38;2.60;;;;;;;;;;5031233;28;20132;-76
2023/09/21 08:51:42;;;;;;;6.50;3.03;;;;;;;;;;5032457;28;20091;-76
2023/09/21 08:54:08;;;;;;;8.68;3.15;;;;;;;;;;5026624;28;20044;-76
2023/09/21 08:56:36;;;;;;;4.85;2.67;;;;;;;;;;5016852;28;20103;-76
2023/09/21 08:59:03;;;;;;;6.18;2.40;;;;;;;;;;5033660;28;20045;-76
2023/09/21 09:01:29;;;;;;;6.43;2.53;;;;;;;;;;5017007;28;20055;-75
2023/09/21 09:03:55;;;;;;;4.75;3.22;;;;;;;;;;5035739;28;20045;-76
2023/09/21 09:06:21;;;;;;;3.90;2.35;;;;;;;;;;5036907;28;20702;-74
2023/09/21 09:08:48;;;;;;;7.10;2.83;;;;;;;;;;5036091;28;20073;-74
2023/09/21 09:11:36;;;;;;;4.57;2.95;;;;;;;;;;5035158;28;20095;-74
2023/09/21 09:14:12;;;;;;;8.88;3.45;;;;;;;;;;5036346;28;20467;-73
2023/09/21 09:16:38;;;;;;;5.97;3.13;;;;;;;;;;5037551;28;20086;-74
2023/09/21 09:19:08;;;;;;;8.07;3.38;;;;;;;;;;5036871;28;20044;-74
2023/09/21 09:21:35;;;;;;;5.88;3.10;;;;;;;;;;5032599;28;20049;-73
2023/09/21 09:24:02;;;;;;;6.15;3.00;;;;;;;;;;5030014;28;20048;-74
2023/09/21 09:26:29;;;;;;;5.55;3.67;;;;;;;;;;5031807;28;20548;-74
2023/09/21 09:29:06;;;;;;;8.57;3.35;;;;;;;;;;5030984;28;20456;-71
2023/09/21 09:31:32;;;;;;;4.22;3.53;;;;;;;;;;5019754;28;20040;-71
2023/09/21 09:34:00;;;;;;;8.48;4.05;;;;;;;;;;5031383;28;20571;-72
2023/09/21 09:36:27;;;;;;;7.50;4.32;;;;;;;;;;5029149;28;20128;-73
2023/09/21 09:38:53;;;;;;;4.47;3.63;;;;;;;;;;5029370;28;20057;-73
2023/09/21 09:41:19;;;;;;;7.40;4.10;;;;;;;;;;5029106;28;20764;-72
2023/09/21 09:43:52;;;;;;;6.00;4.13;;;;;;;;;;5030108;28;20061;-72
2023/09/21 09:46:22;;;;;;;7.93;4.17;;;;;;;;;;5030595;28;20123;-73
2023/09/21 09:48:49;;;;;;;7.28;4.68;;;;;;;;;;5031074;28;20041;-72
2023/09/21 09:51:19;;;;;;;9.13;4.75;;;;;;;;;;5029021;28;20064;-73
2023/09/21 09:53:48;;;;;;;7.25;4.63;;;;;;;;;;5025159;28;20239;-73
2023/09/21 09:56:17;;;;;;;7.88;4.72;;;;;;;;;;5031704;28;20045;-74
2023/09/21 09:58:44;;;;;;;5.78;3.95;;;;;;;;;;5015196;28;20489;-74
2023/09/21 10:01:12;;;;;;;3.60;2.10;;;;;;;;;;5029488;28;20049;-74
2023/09/21 10:03:38;;;;;;;2.15;1.40;;;;;;;;;;5027991;28;20226;-73
2023/09/21 10:06:08;;;;;;;5.20;1.40;;;;;;;;;;5028798;28;20065;-74
2023/09/21 10:08:38;;;;;;;1.48;1.10;;;;;;;;;;5028830;28;20049;-74
2023/09/21 10:11:06;;;;;;;2.63;0.77;;;;;;;;;;5029385;28;20044;-74
2023/09/21 10:13:34;;;;;;;4.30;1.40;;;;;;;;;;5026725;28;20712;-74
2023/09/21 10:16:05;;;;;;;2.92;0.90;;;;;;;;;;5016440;28;21922;-74
2023/09/21 10:18:38;;;;;;;3.40;1.05;;;;;;;;;;5007351;28;20079;-74
2023/09/21 10:21:24;;;;;;;3.67;1.00;;;;;;;;;;5002703;28;20045;-73
2023/09/21 10:24:04;;;;;;;2.58;0.90;;;;;;;;;;5034122;28;20055;-73
2023/09/21 10:26:33;;;;;;;4.15;0.90;;;;;;;;;;5035876;28;20045;-74
2023/09/21 10:29:04;;;;;;;1.42;0.85;;;;;;;;;;5034712;28;20048;-74
2023/09/21 10:31:32;;;;;;;2.60;1.00;;;;;;;;;;5033163;28;20059;-74
2023/09/21 10:33:58;;;;;;;104.20;8.05;;;;;;;;;;5034266;28;20515;-75
2023/09/21 10:36:28;;;;;;;1.58;0.88;;;;;;;;;;5034302;28;20041;-75
2023/09/21 10:39:10;;;;;;;1.35;0.52;;;;;;;;;;5031590;28;20546;-73
2023/09/21 10:41:39;;;;;;;3.40;0.88;;;;;;;;;;5018133;28;20049;-73
2023/09/21 10:44:06;;;;;;;3.15;0.93;;;;;;;;;;5004358;28;20056;-72
2023/09/21 10:46:34;;;;;;;2.15;0.90;;;;;;;;;;5031490;28;20098;-73
2023/09/21 10:49:03;;;;;;;0.95;0.60;;;;;;;;;;5035833;28;20153;-73
2023/09/21 10:51:30;;;;;;;2.55;1.00;;;;;;;;;;5028547;28;20067;-73
2023/09/21 10:53:58;;;;;;;1.08;0.80;;;;;;;;;;5030041;28;20060;-76
2023/09/21 10:56:25;;;;;;;1.83;0.85;;;;;;;;;;5031740;28;20084;-76
2023/09/21 10:58:51;;;;;;;1.73;0.75;;;;;;;;;;5033765;28;20517;-76
2023/09/21 11:01:21;;;;;;;1.20;0.82;;;;;;;;;;5035478;28;20045;-76
2023/09/21 11:03:50;;;;;;;1.67;0.90;;;;;;;;;;5035147;28;20491;-77
2023/09/21 11:06:17;;;;;;;1.80;0.85;;;;;;;;;;5033276;28;20722;-76
2023/09/21 11:08:47;;;;;;;3.42;1.20;;;;;;;;;;5034698;28;20100;-76
2023/09/21 11:11:13;;;;;;;1.83;0.63;;;;;;;;;;5017844;28;20178;-76
2023/09/21 11:13:40;;;;;;;2.92;1.40;;;;;;;;;;5035808;28;20049;-78
2023/09/21 11:16:06;;;;;;;2.25;1.70;;;;;;;;;;5033937;28;20063;-79
2023/09/21 11:18:42;;;;;;;1.17;0.80;;;;;;;;;;5034557;28;20052;-79
2023/09/21 11:21:09;;;;;;;1.88;1.05;;;;;;;;;;5035562;28;20056;-78
2023/09/21 11:23:35;;;;;;;2.92;0.98;;;;;;;;;;5034159;28;20045;-79
2023/09/21 11:26:01;;;;;;;6.10;0.98;;;;;;;;;;5033011;28;20041;-78
2023/09/21 11:28:28;;;;;;;2.35;1.00;;;;;;;;;;5017413;28;20094;-77
2023/09/21 11:30:56;;;;;;;2.13;1.08;;;;;;;;;;5033698;28;20587;-78
2023/09/21 11:33:45;;;;;;;1.77;1.05;;;;;;;;;;5020994;28;20538;-81
2023/09/21 11:36:28;;;;;;;2.30;0.90;;;;;;;;;;5028850;28;20059;-82
2023/09/21 11:38:54;;;;;;;3.42;1.05;;;;;;;;;;5016284;28;20088;-77
2023/09/21 11:41:20;;;;;;;1.52;1.00;;;;;;;;;;5034133;28;20045;-77
2023/09/21 11:43:49;;;;;;;3.42;1.30;;;;;;;;;;5019129;28;20074;-78
2023/09/21 11:46:16;;;;;;;1.67;1.20;;;;;;;;;;5034261;28;20106;-79
2023/09/21 11:48:43;;;;;;;2.97;1.00;;;;;;;;;;5032855;28;20516;-79
2023/09/21 11:51:11;;;;;;;1.90;1.20;;;;;;;;;;5033882;28;20052;-79
2023/09/21 11:53:39;;;;;;;1.80;1.00;;;;;;;;;;5032160;28;20121;-79
2023/09/21 11:56:05;;;;;;;1.70;0.93;;;;;;;;;;5033230;28;20052;-78
2023/09/21 11:58:35;;;;;;;1.25;0.90;;;;;;;;;;5038143;28;20128;-79
2023/09/21 12:03:33;;;;;;;1.48;1.00;;;;;;;;;;5030081;28;20036;-77
2023/09/21 12:06:04;;;;;;;1.08;0.98;;;;;;;;;;5034154;28;20037;-78
2023/09/21 12:08:31;;;;;;;2.10;1.30;;;;;;;;;;5004370;28;20079;-78
2023/09/21 12:10:57;;;;;;;3.17;1.25;;;;;;;;;;5032806;28;20143;-77
2023/09/21 12:13:24;;;;;;;1.55;0.93;;;;;;;;;;5004946;28;21050;-77
2023/09/21 12:15:55;;;;;;;1.33;1.00;;;;;;;;;;5032216;28;20044;-77
2023/09/21 12:18:21;;;;;;;2.63;1.17;;;;;;;;;;5018242;28;20056;-77
2023/09/21 12:20:51;;;;;;;2.33;1.10;;;;;;;;;;5031625;28;20051;-76
2023/09/21 12:23:18;;;;;;;2.40;1.00;;;;;;;;;;5035673;28;20060;-76
2023/09/21 12:25:45;;;;;;;1.67;1.08;;;;;;;;;;5033612;28;20540;-76
2023/09/21 12:28:11;;;;;;;2.55;1.10;;;;;;;;;;5004184;28;20520;-76
2023/09/21 12:30:41;;;;;;;2.10;1.10;;;;;;;;;;5033051;28;20062;-75
2023/09/21 12:33:08;;;;;;;4.35;1.30;;;;;;;;;;5033461;28;20055;-75
2023/09/21 12:35:35;;;;;;;1.35;1.08;;;;;;;;;;5030379;28;20730;-75
2023/09/21 12:38:02;;;;;;;3.17;1.30;;;;;;;;;;5034232;28;20071;-75
2023/09/21 12:40:28;;;;;;;5.03;1.60;;;;;;;;;;5032922;28;20080;-75
2023/09/21 12:42:54;;;;;;;6.78;1.45;;;;;;;;;;5033321;28;20043;-78
2023/09/21 12:45:21;;;;;;;3.08;1.50;;;;;;;;;;5004168;28;20040;-77
2023/09/21 12:47:47;;;;;;;2.20;1.40;;;;;;;;;;4999560;28;20528;-76
2023/09/21 12:50:14;;;;;;;1.27;1.17;;;;;;;;;;5003870;28;20047;-76
2023/09/21 12:52:42;;;;;;;1.48;0.85;;;;;;;;;;5005172;28;20479;-76
2023/09/21 12:55:08;;;;;;;1.23;0.93;;;;;;;;;;5033171;28;20068;-76
2023/09/21 12:57:36;;;;;;;1.33;1.10;;;;;;;;;;5018511;28;20150;-76
2023/09/21 13:00:22;;;;;;;0.65;0.50;;;;;;;;;;5032898;28;20521;-76
2023/09/21 13:02:48;;;;;;;1.95;0.85;;;;;;;;;;5031396;28;20052;-76
2023/09/21 13:05:15;;;;;;;4.50;0.70;;;;;;;;;;5033404;28;20453;-76
2023/09/21 13:07:45;;;;;;;0.80;0.80;;;;;;;;;;5031610;28;20218;-76
2023/09/21 13:10:13;;;;;;;1.50;0.95;;;;;;;;;;5034854;28;20126;-76
2023/09/21 13:12:39;;;;;;;0.82;0.82;;;;;;;;;;5034095;28;20467;-76
2023/09/21 13:15:06;;;;;;;1.75;0.80;;;;;;;;;;5002879;28;20044;-76
2023/09/21 13:17:32;;;;;;;1.98;0.80;;;;;;;;;;5018068;28;20488;-76
2023/09/21 13:19:59;;;;;;;2.28;1.00;;;;;;;;;;5033000;28;20053;-76
2023/09/21 13:22:25;;;;;;;0.80;0.70;;;;;;;;;;5032231;28;20451;-76
2023/09/21 13:24:52;;;;;;;2.00;0.80;;;;;;;;;;5032792;28;20045;-76
2023/09/21 13:27:19;;;;;;;1.98;0.93;;;;;;;;;;5030066;28;20371;-77
2023/09/21 13:29:45;;;;;;;411.77;37.55;;;;;;;;;;5030725;28;20072;-76
2023/09/21 13:32:12;;;;;;;1.30;0.95;;;;;;;;;;5032559;28;20059;-74
2023/09/21 13:34:38;;;;;;;3.47;1.10;;;;;;;;;;5029805;28;20602;-75
2023/09/21 13:37:04;;;;;;;2.45;1.33;;;;;;;;;;5012097;28;20036;-75
2023/09/21 13:39:34;;;;;;;2.05;1.02;;;;;;;;;;5030580;28;20049;-75
2023/09/21 13:42:00;;;;;;;1.13;1.00;;;;;;;;;;5029160;28;20045;-75
2023/09/21 13:44:27;;;;;;;1.33;1.10;;;;;;;;;;5028670;28;20044;-75
2023/09/21 13:46:54;;;;;;;1.90;1.20;;;;;;;;;;5034717;28;20131;-74
2023/09/21 13:49:20;;;;;;;0.93;0.88;;;;;;;;;;5036253;28;20615;-75
2023/09/21 13:51:46;;;;;;;3.67;1.33;;;;;;;;;;5008729;28;20689;-76
2023/09/21 13:54:14;;;;;;;1.27;1.08;;;;;;;;;;5033402;28;20060;-76
2023/09/21 13:56:40;;;;;;;0.80;0.80;;;;;;;;;;5036390;28;20052;-76
2023/09/21 13:59:06;;;;;;;3.92;1.40;;;;;;;;;;5036283;28;20069;-76
2023/09/21 14:01:32;;;;;;;1.00;1.00;;;;;;;;;;5036191;28;20148;-76
2023/09/21 14:03:58;;;;;;;1.33;0.90;;;;;;;;;;5035365;28;20944;-76
2023/09/21 14:06:27;;;;;;;1.98;1.10;;;;;;;;;;5035095;28;20492;-75
2023/09/21 14:08:53;;;;;;;7.65;1.40;;;;;;;;;;5034460;28;20065;-75
2023/09/21 14:11:20;;;;;;;1.88;1.10;;;;;;;;;;5037121;28;22333;-75
2023/09/21 14:13:46;;;;;;;2.42;1.17;;;;;;;;;;5015826;28;20052;-74
2023/09/21 14:16:12;;;;;;;2.03;1.23;;;;;;;;;;5032512;28;20044;-76
2023/09/21 14:18:42;;;;;;;1.30;1.20;;;;;;;;;;5015886;28;20075;-76
2023/09/21 14:21:08;;;;;;;2.78;1.20;;;;;;;;;;5016759;28;20503;-74
2023/09/21 14:24:09;;;;;;;1.90;1.00;;;;;;;;;;5034627;28;20041;-89
2023/09/21 14:30:40;;;;;;;1.38;1.08;;;;;;;;;;5063309;28;20071;-89
2023/09/21 14:33:07;;;;;;;1.80;1.27;;;;;;;;;;5039015;28;20058;-74
2023/09/21 14:35:35;;;;;;;1.63;1.30;;;;;;;;;;5051623;28;20044;-73
2023/09/21 14:38:02;;;;;;;1.38;1.20;;;;;;;;;;5037997;28;20495;-73
2023/09/21 14:40:28;;;;;;;5.97;1.55;;;;;;;;;;5035744;28;20548;-73
2023/09/21 14:42:55;;;;;;;2.05;1.45;;;;;;;;;;5038955;28;20055;-72
2023/09/21 14:45:21;;;;;;;2.47;1.48;;;;;;;;;;5011595;28;20040;-72
2023/09/21 14:47:48;;;;;;;2.13;1.50;;;;;;;;;;5047095;28;21747;-73
2023/09/21 14:50:15;;;;;;;3.28;2.00;;;;;;;;;;5033027;28;20048;-72
2023/09/21 14:52:41;;;;;;;3.50;1.70;;;;;;;;;;5050061;28;20101;-71
2023/09/21 14:55:07;;;;;;;3.03;1.70;;;;;;;;;;5033239;28;20060;-71